This is the latest recevied weather packets stored in our database for station/object OE-11051. If no packets are shown the sender has not sent any weather packets the latest 10 day(s).
| Time | Temp. | Humidity | Pressure | Rain* | Wind** | Luminosity | Snow |
|---|---|---|---|---|---|---|---|
| 1788597680 | 16.11° C | 86% | 1022.5 hPa | 0 mm | - | 206 W/m² | - |
| 1788597307 | 16.11° C | 87% | 1022.6 hPa | 0 mm | - | 245 W/m² | - |
| 1788596707 | 15.56° C | 89% | 1022.7 hPa | 0 mm | - | 174 W/m² | - |
| 1788595879 | 15.56° C | 90% | 1022.8 hPa | 0 mm | - | 129 W/m² | - |
| 1788595507 | 15° C | 90% | 1022.8 hPa | 0 mm | - | 64 W/m² | - |
| 1788594906 | 15° C | 91% | 1022.8 hPa | 0 mm | - | 58 W/m² | - |
| 1788594080 | 15° C | 90% | 1022.6 hPa | 0.25 mm | - | 84 W/m² | - |
| 1788593707 | 15° C | 89% | 1022.5 hPa | 0.76 mm | - | 97 W/m² | - |
| 1788593107 | 14.44° C | 90% | 1022.6 hPa | 1.02 mm | - | 71 W/m² | - |
| 1788592279 | 14.44° C | 91% | 1022.1 hPa | 1.02 mm | - | 58 W/m² | - |
| 1788591906 | 14.44° C | 91% | 1022.5 hPa | 1.02 mm | - | 39 W/m² | - |
| 1788591307 | 14.44° C | 91% | 1022.2 hPa | 1.27 mm | - | 45 W/m² | - |
| 1788590479 | 14.44° C | 90% | 1022.1 hPa | 1.52 mm | - | 19 W/m² | - |
| 1788590106 | 14.44° C | 90% | 1022.2 hPa | 1.78 mm | - | 6 W/m² | - |
| 1788589507 | 14.44° C | 88% | 1022.8 hPa | 1.52 mm | - | 6 W/m² | - |
| 1788588679 | 15° C | 86% | 1022.1 hPa | 1.27 mm | - | 19 W/m² | - |
| 1788588307 | 15.56° C | 85% | 1022.4 hPa | 1.27 mm | - | 13 W/m² | - |
| 1788587707 | 15.56° C | 83% | 1021.9 hPa | 1.02 mm | - | 6 W/m² | - |
| 1788586507 | 16.67° C | 72% | 1021.2 hPa | 0.51 mm | - | 6 W/m² | - |
| 1788564907 | 21.11° C | 60% | 1014.7 hPa | 0 mm | - | 0 W/m² | - |
| 1788564307 | 21.11° C | 58% | 1014.6 hPa | 0 mm | - | 0 W/m² | - |
| 1788561307 | 21.67° C | 59% | 1014.1 hPa | 0 mm | - | 0 W/m² | - |
| 1788559880 | 23.33° C | 49% | 1013.6 hPa | 0 mm | - | 0 W/m² | - |
| 1788559507 | 22.78° C | 51% | 1013.7 hPa | 0 mm | - | 0 W/m² | - |
| 1788555907 | 23.33° C | 48% | 1013.5 hPa | 0 mm | - | 0 W/m² | - |
* Rain latest hour (hover to see other rain measurements)
** Current wind speed in m/s (hover to see current wind gust speed)